Time;durP1;ratioP1;P1;durP2;ratioP2;P2;SDS_P1;SDS_P2;PMS_P1;PMS_P2;Temp;Humidity;BMP_temperature;BMP_pressure;BME280_temperature;BME280_humidity;BME280_pressure;Samples;Min_cycle;Max_cycle;Signal;HPM_P1;HPM_P2
2022/09/10 00:02:05;;;;;;;0.80;0.80;;;;;;;;;;5081592;28;20203;-63
2022/09/10 00:04:52;;;;;;;0.70;0.70;;;;;;;;;;5081323;28;20389;-64
2022/09/10 00:07:39;;;;;;;0.77;0.77;;;;;;;;;;5080533;28;20248;-64
2022/09/10 00:10:26;;;;;;;0.80;0.80;;;;;;;;;;5079423;28;20229;-64
2022/09/10 00:13:15;;;;;;;0.83;0.83;;;;;;;;;;5078582;28;20629;-64
2022/09/10 00:16:04;;;;;;;0.70;0.70;;;;;;;;;;5082007;28;20590;-64
2022/09/10 00:18:51;;;;;;;0.67;0.67;;;;;;;;;;5085129;28;20401;-64
2022/09/10 00:21:38;;;;;;;0.80;0.80;;;;;;;;;;5081404;28;20223;-64
2022/09/10 00:24:25;;;;;;;0.77;0.77;;;;;;;;;;5080537;28;20338;-64
2022/09/10 00:27:12;;;;;;;0.80;0.80;;;;;;;;;;5078989;28;20269;-64
2022/09/10 00:30:01;;;;;;;0.90;0.90;;;;;;;;;;5077535;28;20629;-64
2022/09/10 00:32:51;;;;;;;1.10;1.10;;;;;;;;;;5083654;28;20223;-64
2022/09/10 00:35:39;;;;;;;0.90;0.90;;;;;;;;;;5080625;28;20202;-64
2022/09/10 00:38:28;;;;;;;0.90;0.90;;;;;;;;;;5078982;28;20233;-65
2022/09/10 00:41:16;;;;;;;1.40;1.03;;;;;;;;;;5082156;28;20207;-64
2022/09/10 00:44:06;;;;;;;0.70;0.70;;;;;;;;;;5083555;28;20283;-64
2022/09/10 00:46:55;;;;;;;1.00;1.00;;;;;;;;;;5080886;28;20253;-64
2022/09/10 00:49:45;;;;;;;0.80;0.80;;;;;;;;;;5078159;28;20688;-64
2022/09/10 00:52:33;;;;;;;0.90;0.90;;;;;;;;;;5078641;28;20681;-64
2022/09/10 00:55:21;;;;;;;0.80;0.80;;;;;;;;;;5084610;28;20665;-63
2022/09/10 00:58:11;;;;;;;1.13;0.90;;;;;;;;;;5077177;28;20682;-64
2022/09/10 01:01:01;;;;;;;0.90;0.90;;;;;;;;;;5085048;28;20209;-64
2022/09/10 01:03:50;;;;;;;0.90;0.90;;;;;;;;;;5081239;28;20280;-64
2022/09/10 01:06:39;;;;;;;1.13;0.90;;;;;;;;;;5077572;28;20324;-64
2022/09/10 01:09:27;;;;;;;0.80;0.80;;;;;;;;;;5077648;28;20215;-64
2022/09/10 01:12:31;;;;;;;0.80;0.80;;;;;;;;;;5079008;28;20208;-64
2022/09/10 01:15:24;;;;;;;0.83;0.83;;;;;;;;;;5081864;28;20205;-64
2022/09/10 01:18:22;;;;;;;0.80;0.80;;;;;;;;;;5078468;28;20210;-63
2022/09/10 01:21:21;;;;;;;0.80;0.80;;;;;;;;;;5079201;28;20296;-64
2022/09/10 01:24:42;;;;;;;1.13;1.07;;;;;;;;;;5072362;28;20288;-64
2022/09/10 01:27:37;;;;;;;0.97;0.97;;;;;;;;;;5074790;28;20234;-63
2022/09/10 01:30:30;;;;;;;0.87;0.87;;;;;;;;;;5077829;28;20209;-64
2022/09/10 01:33:22;;;;;;;0.70;0.70;;;;;;;;;;5084927;28;20306;-64
2022/09/10 01:36:15;;;;;;;0.87;0.87;;;;;;;;;;5075100;28;20221;-64
2022/09/10 01:39:02;;;;;;;1.37;1.00;;;;;;;;;;5077684;28;20222;-64
2022/09/10 01:41:53;;;;;;;0.90;0.90;;;;;;;;;;5082827;28;20220;-63
2022/09/10 01:44:47;;;;;;;0.80;0.80;;;;;;;;;;5077092;28;20236;-64
2022/09/10 01:47:54;;;;;;;0.90;0.90;;;;;;;;;;5072549;28;20215;-64
2022/09/10 01:50:49;;;;;;;1.23;0.97;;;;;;;;;;5075787;28;20261;-64
2022/09/10 01:53:59;;;;;;;1.00;0.90;;;;;;;;;;5076323;28;20255;-64
2022/09/10 01:56:53;;;;;;;0.90;0.90;;;;;;;;;;5076425;28;20218;-64
2022/09/10 01:59:50;;;;;;;0.90;0.90;;;;;;;;;;5083701;28;20693;-64
2022/09/10 02:02:43;;;;;;;0.73;0.73;;;;;;;;;;5076720;28;20205;-64
2022/09/10 02:05:34;;;;;;;0.90;0.90;;;;;;;;;;5080175;28;20265;-64
2022/09/10 02:08:25;;;;;;;1.00;1.00;;;;;;;;;;5077960;28;20291;-63
2022/09/10 02:11:13;;;;;;;1.53;1.10;;;;;;;;;;5078583;28;20206;-64
2022/09/10 02:14:00;;;;;;;0.80;0.80;;;;;;;;;;5082824;28;20265;-64
2022/09/10 02:16:53;;;;;;;0.80;0.80;;;;;;;;;;5076318;28;20212;-64
2022/09/10 02:19:41;;;;;;;0.90;0.90;;;;;;;;;;5077198;28;20255;-63
2022/09/10 02:22:30;;;;;;;0.70;0.70;;;;;;;;;;5080072;28;20220;-64
2022/09/10 02:25:18;;;;;;;0.90;0.90;;;;;;;;;;5078424;28;20198;-64
2022/09/10 02:28:07;;;;;;;1.10;1.10;;;;;;;;;;5079738;28;20356;-64
2022/09/10 02:30:54;;;;;;;0.90;0.90;;;;;;;;;;5074416;28;20203;-64
2022/09/10 02:33:42;;;;;;;0.90;0.90;;;;;;;;;;5079118;28;20723;-64
2022/09/10 02:36:30;;;;;;;0.93;0.93;;;;;;;;;;5076214;28;20283;-64
2022/09/10 02:39:17;;;;;;;0.90;0.90;;;;;;;;;;5076498;28;20289;-64
2022/09/10 02:42:05;;;;;;;0.80;0.80;;;;;;;;;;5076565;28;20340;-63
2022/09/10 02:44:52;;;;;;;0.73;0.73;;;;;;;;;;5077306;28;20251;-63
2022/09/10 02:47:39;;;;;;;0.90;0.90;;;;;;;;;;5077587;28;20282;-64
2022/09/10 02:50:27;;;;;;;0.73;0.73;;;;;;;;;;5077851;28;20678;-63
2022/09/10 02:53:14;;;;;;;1.10;1.00;;;;;;;;;;5075583;28;20205;-63
2022/09/10 02:56:01;;;;;;;1.10;1.10;;;;;;;;;;5080037;28;20260;-64
2022/09/10 02:58:48;;;;;;;0.90;0.90;;;;;;;;;;5077501;28;20294;-64
2022/09/10 03:01:36;;;;;;;1.10;1.10;;;;;;;;;;5076872;28;20273;-63
2022/09/10 03:04:23;;;;;;;1.00;1.00;;;;;;;;;;5076761;28;20302;-64
2022/09/10 03:07:15;;;;;;;0.80;0.80;;;;;;;;;;5076549;28;20309;-64
2022/09/10 03:10:03;;;;;;;0.80;0.80;;;;;;;;;;5076536;28;20576;-66
2022/09/10 03:12:51;;;;;;;0.90;0.90;;;;;;;;;;5078435;28;20269;-64
2022/09/10 03:15:38;;;;;;;0.97;0.97;;;;;;;;;;5070498;28;20654;-63
2022/09/10 03:18:26;;;;;;;0.97;0.97;;;;;;;;;;5078593;28;20285;-64
2022/09/10 03:21:14;;;;;;;0.70;0.70;;;;;;;;;;5074311;28;20214;-64
2022/09/10 03:24:03;;;;;;;1.03;1.03;;;;;;;;;;5074118;28;20674;-64
2022/09/10 03:26:50;;;;;;;0.83;0.83;;;;;;;;;;5078204;28;20673;-63
2022/09/10 03:29:37;;;;;;;0.93;0.93;;;;;;;;;;5078073;28;20197;-64
2022/09/10 03:32:24;;;;;;;0.87;0.87;;;;;;;;;;5082898;28;20282;-64
2022/09/10 03:35:12;;;;;;;1.00;1.00;;;;;;;;;;5080163;28;20382;-63
2022/09/10 03:38:01;;;;;;;0.90;0.90;;;;;;;;;;5079832;28;20217;-64
2022/09/10 03:40:49;;;;;;;0.80;0.80;;;;;;;;;;5082712;28;20234;-63
2022/09/10 03:43:36;;;;;;;0.80;0.80;;;;;;;;;;5077510;28;20217;-64
2022/09/10 03:46:23;;;;;;;2.30;0.70;;;;;;;;;;5078987;28;20361;-64
2022/09/10 03:49:10;;;;;;;0.93;0.93;;;;;;;;;;5078304;28;20845;-64
2022/09/10 03:51:57;;;;;;;0.90;0.90;;;;;;;;;;5080674;28;20218;-64
2022/09/10 03:54:44;;;;;;;0.93;0.80;;;;;;;;;;5084549;28;20702;-65
2022/09/10 03:57:33;;;;;;;1.00;1.00;;;;;;;;;;5078303;28;20210;-64
2022/09/10 04:00:20;;;;;;;0.90;0.90;;;;;;;;;;5082098;28;20213;-63
2022/09/10 04:03:07;;;;;;;0.90;0.80;;;;;;;;;;5078903;28;20234;-63
2022/09/10 04:05:55;;;;;;;0.83;0.83;;;;;;;;;;5076097;28;20242;-63
2022/09/10 04:08:43;;;;;;;1.40;0.83;;;;;;;;;;5083323;28;20299;-64
2022/09/10 04:11:30;;;;;;;1.00;1.00;;;;;;;;;;5084360;28;20217;-64
2022/09/10 04:14:18;;;;;;;0.80;0.80;;;;;;;;;;5084409;28;20254;-63
2022/09/10 04:17:05;;;;;;;0.63;0.63;;;;;;;;;;5078372;28;20213;-64
2022/09/10 04:19:52;;;;;;;1.00;1.00;;;;;;;;;;5079611;28;20324;-64
2022/09/10 04:22:39;;;;;;;0.80;0.80;;;;;;;;;;5077379;28;20608;-64
2022/09/10 04:25:26;;;;;;;0.80;0.80;;;;;;;;;;5081107;28;20234;-64
2022/09/10 04:28:13;;;;;;;0.90;0.90;;;;;;;;;;5080808;28;20290;-63
2022/09/10 04:31:01;;;;;;;0.97;0.97;;;;;;;;;;5078434;28;20256;-64
2022/09/10 04:33:48;;;;;;;1.00;1.00;;;;;;;;;;5075363;28;20292;-64
2022/09/10 04:36:35;;;;;;;1.00;1.00;;;;;;;;;;5081588;28;20680;-64
2022/09/10 04:39:22;;;;;;;0.80;0.80;;;;;;;;;;5078963;28;20244;-63
2022/09/10 04:42:09;;;;;;;0.70;0.70;;;;;;;;;;5086605;28;20289;-63
2022/09/10 04:44:56;;;;;;;0.80;0.80;;;;;;;;;;5079206;28;20277;-63
2022/09/10 04:47:44;;;;;;;0.80;0.80;;;;;;;;;;5075221;28;20674;-63
2022/09/10 04:50:31;;;;;;;0.70;0.70;;;;;;;;;;5081344;28;20557;-64
2022/09/10 04:53:20;;;;;;;1.23;1.00;;;;;;;;;;5082106;28;20200;-64
2022/09/10 04:56:08;;;;;;;0.70;0.70;;;;;;;;;;5076785;28;20246;-63
2022/09/10 04:58:55;;;;;;;0.87;0.87;;;;;;;;;;5074325;28;20312;-64
2022/09/10 05:01:42;;;;;;;0.80;0.80;;;;;;;;;;5077652;28;20296;-64
2022/09/10 05:04:30;;;;;;;0.83;0.83;;;;;;;;;;5079108;28;20306;-64
2022/09/10 05:07:17;;;;;;;0.80;0.80;;;;;;;;;;5079220;28;20699;-63
2022/09/10 05:10:05;;;;;;;0.80;0.80;;;;;;;;;;5076128;28;20259;-64
2022/09/10 05:12:53;;;;;;;1.03;1.03;;;;;;;;;;5081979;28;20246;-64
2022/09/10 05:15:40;;;;;;;0.93;0.93;;;;;;;;;;5077247;28;20234;-64
2022/09/10 05:18:27;;;;;;;0.90;0.90;;;;;;;;;;5079874;28;20654;-63
2022/09/10 05:21:17;;;;;;;0.80;0.80;;;;;;;;;;5076549;28;20339;-64
2022/09/10 05:24:04;;;;;;;0.80;0.80;;;;;;;;;;5077192;28;20208;-64
2022/09/10 05:26:51;;;;;;;1.00;1.00;;;;;;;;;;5079439;28;20333;-64
2022/09/10 05:29:38;;;;;;;0.90;0.90;;;;;;;;;;5077356;28;20233;-64
2022/09/10 05:32:25;;;;;;;1.00;1.00;;;;;;;;;;5079785;28;20276;-63
2022/09/10 05:35:12;;;;;;;0.90;0.90;;;;;;;;;;5081545;28;20282;-64
2022/09/10 05:38:01;;;;;;;0.77;0.77;;;;;;;;;;5082307;28;20214;-63
2022/09/10 05:40:48;;;;;;;0.80;0.80;;;;;;;;;;5078439;28;20206;-64
2022/09/10 05:43:35;;;;;;;0.80;0.80;;;;;;;;;;5076875;28;20544;-63
2022/09/10 05:46:23;;;;;;;0.80;0.80;;;;;;;;;;5081329;28;20662;-64
2022/09/10 05:49:11;;;;;;;0.77;0.77;;;;;;;;;;5075849;28;20588;-63
2022/09/10 05:51:58;;;;;;;0.60;0.60;;;;;;;;;;5071845;28;20211;-64
2022/09/10 05:54:47;;;;;;;0.83;0.83;;;;;;;;;;5075311;28;20442;-64
2022/09/10 05:57:34;;;;;;;0.60;0.60;;;;;;;;;;5084227;28;20331;-64
2022/09/10 06:00:21;;;;;;;0.80;0.80;;;;;;;;;;5080526;28;20216;-64
2022/09/10 06:03:08;;;;;;;0.77;0.77;;;;;;;;;;5073771;28;20892;-64
2022/09/10 06:05:55;;;;;;;0.70;0.70;;;;;;;;;;5078502;28;20270;-64
2022/09/10 06:08:42;;;;;;;1.00;1.00;;;;;;;;;;5073570;28;20210;-64
2022/09/10 06:11:30;;;;;;;0.77;0.77;;;;;;;;;;5081546;28;20210;-64
2022/09/10 06:14:19;;;;;;;0.80;0.80;;;;;;;;;;5082547;28;20207;-64
2022/09/10 06:17:07;;;;;;;0.70;0.70;;;;;;;;;;5080723;28;20227;-63
2022/09/10 06:19:54;;;;;;;0.63;0.63;;;;;;;;;;5076153;28;20201;-63
2022/09/10 06:22:41;;;;;;;0.80;0.80;;;;;;;;;;5079044;28;20202;-64
2022/09/10 06:25:28;;;;;;;0.80;0.80;;;;;;;;;;5076547;28;20199;-64
2022/09/10 06:28:16;;;;;;;0.90;0.90;;;;;;;;;;5080706;28;20352;-64
2022/09/10 06:31:04;;;;;;;0.90;0.90;;;;;;;;;;5079909;28;20211;-65
2022/09/10 06:33:51;;;;;;;0.70;0.70;;;;;;;;;;5075758;28;20249;-64
2022/09/10 06:36:40;;;;;;;0.80;0.80;;;;;;;;;;5077285;28;20674;-63
2022/09/10 06:39:27;;;;;;;0.70;0.70;;;;;;;;;;5074431;28;20564;-64
2022/09/10 06:42:14;;;;;;;0.70;0.70;;;;;;;;;;5076077;28;20229;-63
2022/09/10 06:45:03;;;;;;;0.77;0.77;;;;;;;;;;5082346;28;20404;-64
2022/09/10 06:47:51;;;;;;;0.80;0.80;;;;;;;;;;5075410;28;20286;-64
2022/09/10 06:50:38;;;;;;;0.70;0.70;;;;;;;;;;5080648;28;20697;-63
2022/09/10 06:53:27;;;;;;;0.70;0.70;;;;;;;;;;5076670;28;20226;-63
2022/09/10 06:56:15;;;;;;;0.60;0.60;;;;;;;;;;5076416;28;20309;-64
2022/09/10 06:59:02;;;;;;;0.70;0.70;;;;;;;;;;5075411;28;20222;-63
2022/09/10 07:01:50;;;;;;;0.80;0.80;;;;;;;;;;5071514;28;20283;-64
2022/09/10 07:04:37;;;;;;;0.60;0.60;;;;;;;;;;5079422;28;20266;-64
2022/09/10 07:07:24;;;;;;;0.70;0.70;;;;;;;;;;5080256;28;20661;-63
2022/09/10 07:10:11;;;;;;;0.80;0.80;;;;;;;;;;5080090;28;20288;-64
2022/09/10 07:12:59;;;;;;;0.70;0.70;;;;;;;;;;5084177;28;20209;-64
2022/09/10 07:15:48;;;;;;;0.60;0.60;;;;;;;;;;5081264;28;20237;-64
2022/09/10 07:18:36;;;;;;;0.50;0.50;;;;;;;;;;5079083;28;20555;-64
2022/09/10 07:21:26;;;;;;;0.60;0.60;;;;;;;;;;5081495;28;20241;-64
2022/09/10 07:24:13;;;;;;;0.70;0.70;;;;;;;;;;5077991;28;20288;-64
2022/09/10 07:27:00;;;;;;;0.63;0.63;;;;;;;;;;5077929;28;20222;-62
2022/09/10 07:29:47;;;;;;;0.70;0.70;;;;;;;;;;5077923;28;20291;-62
2022/09/10 07:32:34;;;;;;;0.60;0.60;;;;;;;;;;5083147;28;20199;-62
2022/09/10 07:35:22;;;;;;;0.60;0.60;;;;;;;;;;5079091;28;20687;-62
2022/09/10 07:38:14;;;;;;;0.70;0.70;;;;;;;;;;5081320;28;20297;-62
2022/09/10 07:41:01;;;;;;;0.52;0.52;;;;;;;;;;5083377;28;20232;-64
2022/09/10 07:43:53;;;;;;;0.60;0.60;;;;;;;;;;5079341;28;20258;-64
2022/09/10 07:46:40;;;;;;;0.63;0.63;;;;;;;;;;5082753;28;20239;-64
2022/09/10 07:49:27;;;;;;;0.67;0.67;;;;;;;;;;5081515;28;20206;-64
2022/09/10 07:52:17;;;;;;;0.60;0.60;;;;;;;;;;5075552;28;20578;-63
2022/09/10 07:55:05;;;;;;;0.50;0.50;;;;;;;;;;5075436;28;20231;-64
2022/09/10 07:57:51;;;;;;;0.30;0.30;;;;;;;;;;5079656;28;20257;-64
2022/09/10 08:00:39;;;;;;;0.40;0.40;;;;;;;;;;5076925;28;20263;-63
2022/09/10 08:03:26;;;;;;;0.50;0.50;;;;;;;;;;5076382;28;20288;-64
2022/09/10 08:06:13;;;;;;;0.50;0.50;;;;;;;;;;5079391;28;20232;-63
2022/09/10 08:09:04;;;;;;;0.80;0.80;;;;;;;;;;5078797;28;20682;-64
2022/09/10 08:11:51;;;;;;;0.50;0.50;;;;;;;;;;5079076;28;20210;-64
2022/09/10 08:14:38;;;;;;;0.60;0.60;;;;;;;;;;5077711;28;20265;-64
2022/09/10 08:17:25;;;;;;;0.63;0.63;;;;;;;;;;5080721;28;20677;-63
2022/09/10 08:20:12;;;;;;;0.50;0.50;;;;;;;;;;5078553;28;20700;-64
2022/09/10 08:22:59;;;;;;;0.40;0.40;;;;;;;;;;5078330;28;20218;-64
2022/09/10 08:25:51;;;;;;;0.50;0.50;;;;;;;;;;5077506;28;20575;-64
2022/09/10 08:28:38;;;;;;;0.70;0.70;;;;;;;;;;5081897;28;20571;-64
2022/09/10 08:31:25;;;;;;;0.83;0.83;;;;;;;;;;5076764;28;20201;-63
2022/09/10 08:34:13;;;;;;;0.83;0.83;;;;;;;;;;5076622;28;20221;-64
2022/09/10 08:37:00;;;;;;;0.50;0.50;;;;;;;;;;5082657;28;20755;-64
2022/09/10 08:39:48;;;;;;;0.60;0.60;;;;;;;;;;5072497;28;20214;-63
2022/09/10 08:42:41;;;;;;;0.53;0.53;;;;;;;;;;5082379;28;20208;-64
2022/09/10 08:45:32;;;;;;;0.80;0.80;;;;;;;;;;5076289;28;20280;-63
2022/09/10 08:48:22;;;;;;;0.50;0.50;;;;;;;;;;5077877;28;20208;-64
2022/09/10 08:51:14;;;;;;;0.60;0.60;;;;;;;;;;5079137;28;20561;-63
2022/09/10 08:54:06;;;;;;;0.80;0.80;;;;;;;;;;5078451;28;20323;-64
2022/09/10 08:56:57;;;;;;;0.53;0.53;;;;;;;;;;5083131;28;20234;-64
2022/09/10 08:59:49;;;;;;;0.60;0.60;;;;;;;;;;5077737;28;20213;-64
2022/09/10 09:02:45;;;;;;;0.50;0.50;;;;;;;;;;5072999;28;20205;-63
2022/09/10 09:05:44;;;;;;;0.60;0.60;;;;;;;;;;5078272;28;20236;-63
2022/09/10 09:08:34;;;;;;;0.73;0.73;;;;;;;;;;5075912;28;20213;-63
2022/09/10 09:11:30;;;;;;;0.63;0.63;;;;;;;;;;5080802;28;20894;-63
2022/09/10 09:14:32;;;;;;;0.47;0.47;;;;;;;;;;5076818;28;20413;-64
2022/09/10 09:17:32;;;;;;;0.63;0.63;;;;;;;;;;5080862;28;20218;-63
2022/09/10 09:20:31;;;;;;;0.70;0.70;;;;;;;;;;5079155;28;20663;-63
2022/09/10 09:23:23;;;;;;;0.50;0.50;;;;;;;;;;5075445;28;20255;-64
2022/09/10 09:26:12;;;;;;;0.70;0.70;;;;;;;;;;5077614;28;20314;-64
2022/09/10 09:29:04;;;;;;;0.60;0.60;;;;;;;;;;5081093;28;20210;-64
2022/09/10 09:31:55;;;;;;;0.60;0.60;;;;;;;;;;5079378;28;20219;-63
2022/09/10 09:34:48;;;;;;;0.70;0.70;;;;;;;;;;5078555;28;20294;-64
2022/09/10 09:37:37;;;;;;;0.43;0.43;;;;;;;;;;5076949;28;20211;-64
2022/09/10 09:40:30;;;;;;;0.60;0.60;;;;;;;;;;5077436;28;20254;-64
2022/09/10 09:43:28;;;;;;;0.50;0.50;;;;;;;;;;5077421;28;20229;-64
2022/09/10 09:46:17;;;;;;;0.60;0.60;;;;;;;;;;5075997;28;20206;-64
2022/09/10 09:49:05;;;;;;;0.70;0.70;;;;;;;;;;5081726;28;20675;-64
2022/09/10 09:51:54;;;;;;;0.67;0.67;;;;;;;;;;5077335;28;20338;-64
2022/09/10 09:54:47;;;;;;;0.50;0.50;;;;;;;;;;5078201;28;20261;-63
2022/09/10 09:57:34;;;;;;;0.70;0.70;;;;;;;;;;5076483;28;20251;-64
2022/09/10 10:00:35;;;;;;;0.50;0.50;;;;;;;;;;5077829;28;20209;-64
2022/09/10 10:03:25;;;;;;;0.60;0.60;;;;;;;;;;5076832;28;20219;-64
2022/09/10 10:06:12;;;;;;;0.60;0.60;;;;;;;;;;5076095;28;20297;-64
2022/09/10 10:09:04;;;;;;;0.60;0.60;;;;;;;;;;5078509;28;20234;-64
2022/09/10 10:11:53;;;;;;;0.50;0.50;;;;;;;;;;5075830;28;20667;-64
2022/09/10 10:14:41;;;;;;;0.70;0.70;;;;;;;;;;5078326;28;20215;-64
2022/09/10 10:17:32;;;;;;;0.50;0.50;;;;;;;;;;5076237;28;20406;-64
2022/09/10 10:20:36;;;;;;;0.67;0.67;;;;;;;;;;5076995;28;20245;-63
2022/09/10 10:23:32;;;;;;;0.67;0.67;;;;;;;;;;5071952;28;20203;-64
2022/09/10 10:26:29;;;;;;;0.80;0.80;;;;;;;;;;5076942;28;20245;-63
2022/09/10 10:29:18;;;;;;;1.40;0.53;;;;;;;;;;5070435;28;20224;-64
2022/09/10 10:32:15;;;;;;;0.60;0.60;;;;;;;;;;5074761;28;20214;-64
2022/09/10 10:35:23;;;;;;;0.50;0.50;;;;;;;;;;5071627;28;20214;-64
2022/09/10 10:38:25;;;;;;;0.53;0.53;;;;;;;;;;5076656;28;20261;-64
2022/09/10 10:41:41;;;;;;;0.80;0.80;;;;;;;;;;5077002;28;20294;-64
2022/09/10 10:44:44;;;;;;;0.50;0.50;;;;;;;;;;5081752;28;20213;-64
2022/09/10 10:47:47;;;;;;;0.67;0.67;;;;;;;;;;5081961;28;20221;-64
2022/09/10 10:50:51;;;;;;;0.70;0.70;;;;;;;;;;5075787;28;20280;-64
2022/09/10 10:53:54;;;;;;;0.63;0.63;;;;;;;;;;5084375;28;20682;-64
2022/09/10 10:56:55;;;;;;;0.60;0.60;;;;;;;;;;5080021;28;20311;-64
2022/09/10 10:59:56;;;;;;;0.70;0.70;;;;;;;;;;5082972;28;20213;-65
2022/09/10 11:02:49;;;;;;;0.60;0.60;;;;;;;;;;5082592;28;20213;-64
2022/09/10 11:05:38;;;;;;;0.53;0.53;;;;;;;;;;5062981;28;20247;-64
2022/09/10 11:08:30;;;;;;;0.50;0.50;;;;;;;;;;5060769;28;20216;-64
2022/09/10 11:11:20;;;;;;;0.70;0.60;;;;;;;;;;5057686;28;20329;-64
2022/09/10 11:14:18;;;;;;;0.70;0.70;;;;;;;;;;5061737;28;20302;-65
2022/09/10 11:17:12;;;;;;;0.67;0.67;;;;;;;;;;5059172;28;20248;-64
2022/09/10 11:20:09;;;;;;;0.63;0.60;;;;;;;;;;5059993;28;20271;-64
2022/09/10 11:23:02;;;;;;;0.60;0.60;;;;;;;;;;5058144;28;20214;-64
2022/09/10 11:25:58;;;;;;;0.40;0.40;;;;;;;;;;5061021;28;20689;-65
2022/09/10 11:28:54;;;;;;;0.60;0.60;;;;;;;;;;5056031;28;20298;-64
2022/09/10 11:31:46;;;;;;;0.60;0.60;;;;;;;;;;5062881;28;20220;-64
2022/09/10 11:34:37;;;;;;;0.43;0.43;;;;;;;;;;5057563;28;20783;-64
2022/09/10 11:37:32;;;;;;;0.63;0.63;;;;;;;;;;5058428;28;20352;-64
2022/09/10 11:40:28;;;;;;;0.60;0.60;;;;;;;;;;5058213;28;20242;-64
2022/09/10 11:43:28;;;;;;;0.60;0.60;;;;;;;;;;5066133;28;20582;-64
2022/09/10 11:46:22;;;;;;;0.47;0.47;;;;;;;;;;5060055;28;20242;-64
2022/09/10 11:49:16;;;;;;;0.70;0.70;;;;;;;;;;5062115;28;20207;-64
2022/09/10 11:52:03;;;;;;;0.80;0.60;;;;;;;;;;5058079;28;20231;-64
2022/09/10 11:54:51;;;;;;;0.60;0.60;;;;;;;;;;5066526;28;20672;-64
2022/09/10 11:57:46;;;;;;;0.53;0.53;;;;;;;;;;5057592;28;20229;-64
2022/09/10 12:00:42;;;;;;;0.37;0.37;;;;;;;;;;5053811;28;20216;-64
2022/09/10 12:04:11;;;;;;;0.67;0.67;;;;;;;;;;5060893;28;20416;-64
2022/09/10 12:07:08;;;;;;;1.03;0.57;;;;;;;;;;5039541;28;20226;-64
2022/09/10 12:10:05;;;;;;;0.77;0.70;;;;;;;;;;5060188;28;20222;-64
2022/09/10 12:12:53;;;;;;;0.60;0.60;;;;;;;;;;5062242;28;20345;-64
2022/09/10 12:15:40;;;;;;;0.70;0.60;;;;;;;;;;5059688;28;20217;-64
2022/09/10 12:18:33;;;;;;;0.60;0.60;;;;;;;;;;5065274;28;20212;-64
2022/09/10 12:21:31;;;;;;;0.67;0.67;;;;;;;;;;5059148;28;20236;-64
2022/09/10 12:24:30;;;;;;;0.43;0.43;;;;;;;;;;5058619;28;20209;-64
2022/09/10 12:27:19;;;;;;;0.53;0.53;;;;;;;;;;5063166;28;20203;-64
2022/09/10 12:30:39;;;;;;;0.67;0.67;;;;;;;;;;5057529;28;20217;-63
2022/09/10 12:33:53;;;;;;;0.53;0.50;;;;;;;;;;5062142;28;20268;-64
2022/09/10 12:37:18;;;;;;;0.70;0.70;;;;;;;;;;5056012;28;20237;-64
2022/09/10 12:40:41;;;;;;;0.70;0.70;;;;;;;;;;5062079;28;20217;-64
2022/09/10 12:44:00;;;;;;;0.70;0.70;;;;;;;;;;5064826;28;20211;-64
2022/09/10 12:46:47;;;;;;;0.60;0.60;;;;;;;;;;4999309;28;20304;-63
2022/09/10 12:49:35;;;;;;;0.60;0.60;;;;;;;;;;5060809;28;20277;-64
2022/09/10 12:52:35;;;;;;;0.87;0.67;;;;;;;;;;5064533;28;20683;-63
2022/09/10 12:55:35;;;;;;;0.77;0.77;;;;;;;;;;5061167;28;20211;-64
2022/09/10 12:58:33;;;;;;;0.70;0.70;;;;;;;;;;5058018;28;20260;-64
2022/09/10 13:01:37;;;;;;;0.60;0.60;;;;;;;;;;5057937;28;20320;-65
2022/09/10 13:04:28;;;;;;;0.50;0.50;;;;;;;;;;5058631;28;20339;-64
2022/09/10 13:07:22;;;;;;;0.70;0.70;;;;;;;;;;5076713;28;20844;-64
2022/09/10 13:10:19;;;;;;;0.70;0.70;;;;;;;;;;5081190;28;20240;-64
2022/09/10 13:13:24;;;;;;;0.63;0.63;;;;;;;;;;5077718;28;20206;-64
2022/09/10 13:16:16;;;;;;;0.60;0.60;;;;;;;;;;5077980;28;20210;-64
2022/09/10 13:19:36;;;;;;;0.70;0.60;;;;;;;;;;5072156;28;20211;-64
2022/09/10 13:22:56;;;;;;;0.77;0.77;;;;;;;;;;5082604;28;20287;-64
2022/09/10 13:25:44;;;;;;;0.63;0.63;;;;;;;;;;5079097;28;20212;-64
2022/09/10 13:29:01;;;;;;;0.53;0.53;;;;;;;;;;5080396;28;20283;-64
2022/09/10 13:31:57;;;;;;;0.60;0.60;;;;;;;;;;5082423;28;20217;-64
2022/09/10 13:35:08;;;;;;;0.60;0.60;;;;;;;;;;5076461;28;20292;-64
2022/09/10 13:38:30;;;;;;;0.63;0.63;;;;;;;;;;5079489;28;20316;-64
2022/09/10 13:41:42;;;;;;;0.60;0.60;;;;;;;;;;5068047;28;20303;-64
2022/09/10 13:44:47;;;;;;;1.33;0.70;;;;;;;;;;5078451;28;20209;-64
2022/09/10 13:47:41;;;;;;;0.70;0.70;;;;;;;;;;5076778;28;20332;-64
2022/09/10 13:50:32;;;;;;;0.40;0.40;;;;;;;;;;5072791;28;20206;-64
2022/09/10 13:53:23;;;;;;;1.30;0.90;;;;;;;;;;5076216;28;20231;-64
2022/09/10 13:56:16;;;;;;;0.90;0.80;;;;;;;;;;5070956;28;20305;-64
2022/09/10 13:59:05;;;;;;;0.53;0.53;;;;;;;;;;5081454;28;20210;-63
2022/09/10 14:01:54;;;;;;;0.70;0.70;;;;;;;;;;5075285;28;20252;-63
2022/09/10 14:04:41;;;;;;;0.60;0.60;;;;;;;;;;5062122;28;20325;-63
2022/09/10 14:07:28;;;;;;;0.70;0.70;;;;;;;;;;5056353;28;20247;-64
2022/09/10 14:10:17;;;;;;;0.60;0.60;;;;;;;;;;5056772;28;20692;-64
2022/09/10 14:13:04;;;;;;;0.90;0.80;;;;;;;;;;5062152;28;20202;-64
2022/09/10 14:15:53;;;;;;;0.70;0.70;;;;;;;;;;5061791;28;20340;-64
2022/09/10 14:18:44;;;;;;;0.67;0.60;;;;;;;;;;5060081;28;20716;-64
2022/09/10 14:21:31;;;;;;;0.80;0.80;;;;;;;;;;5057001;28;20202;-64
2022/09/10 14:24:29;;;;;;;0.57;0.57;;;;;;;;;;5056665;28;20818;-64
2022/09/10 14:27:22;;;;;;;0.70;0.70;;;;;;;;;;5058787;28;20206;-63
2022/09/10 14:30:23;;;;;;;0.70;0.70;;;;;;;;;;5057028;28;20216;-64
2022/09/10 14:33:25;;;;;;;0.77;0.77;;;;;;;;;;5058876;28;20874;-64
2022/09/10 14:36:18;;;;;;;0.70;0.70;;;;;;;;;;5058142;28;20217;-64
2022/09/10 14:39:14;;;;;;;0.80;0.80;;;;;;;;;;5057811;28;20202;-63
2022/09/10 14:42:23;;;;;;;0.50;0.50;;;;;;;;;;5054824;28;20289;-64
2022/09/10 14:45:39;;;;;;;0.67;0.67;;;;;;;;;;5057666;28;20205;-64
2022/09/10 14:48:34;;;;;;;0.60;0.60;;;;;;;;;;5052383;28;20232;-64
2022/09/10 14:51:22;;;;;;;0.70;0.70;;;;;;;;;;5056996;28;20206;-64
2022/09/10 14:54:10;;;;;;;0.60;0.60;;;;;;;;;;5059269;28;20220;-64
2022/09/10 14:57:01;;;;;;;0.60;0.60;;;;;;;;;;5055981;28;20223;-64
2022/09/10 14:59:50;;;;;;;0.70;0.70;;;;;;;;;;5053394;28;20220;-63
2022/09/10 15:02:36;;;;;;;0.60;0.60;;;;;;;;;;5058701;28;20219;-64
2022/09/10 15:05:23;;;;;;;0.90;0.90;;;;;;;;;;5055012;28;20311;-64
2022/09/10 15:08:10;;;;;;;0.60;0.60;;;;;;;;;;5059409;28;20684;-64
2022/09/10 15:10:58;;;;;;;0.70;0.70;;;;;;;;;;5055203;28;20296;-64
2022/09/10 15:13:46;;;;;;;0.53;0.53;;;;;;;;;;5056588;28;20213;-65
2022/09/10 15:16:35;;;;;;;0.80;0.80;;;;;;;;;;5057984;28;20208;-64
2022/09/10 15:19:22;;;;;;;0.70;0.70;;;;;;;;;;5052616;28;20993;-63
2022/09/10 15:22:19;;;;;;;0.70;0.70;;;;;;;;;;5051706;28;20290;-64
2022/09/10 15:25:07;;;;;;;0.60;0.60;;;;;;;;;;5057479;28;20306;-64
2022/09/10 15:27:54;;;;;;;0.60;0.60;;;;;;;;;;5061939;28;20586;-64
2022/09/10 15:30:40;;;;;;;0.73;0.73;;;;;;;;;;5058241;28;20245;-64
2022/09/10 15:33:29;;;;;;;0.57;0.57;;;;;;;;;;5060721;28;20565;-64
2022/09/10 15:36:16;;;;;;;0.60;0.60;;;;;;;;;;5057477;28;20250;-65
2022/09/10 15:39:03;;;;;;;0.80;0.77;;;;;;;;;;5056647;28;20259;-64
2022/09/10 15:41:50;;;;;;;0.70;0.70;;;;;;;;;;5059496;28;20227;-64
2022/09/10 15:44:39;;;;;;;0.50;0.50;;;;;;;;;;5053576;28;20315;-63
2022/09/10 15:47:26;;;;;;;0.70;0.70;;;;;;;;;;5061062;28;20227;-64
2022/09/10 15:50:15;;;;;;;0.63;0.63;;;;;;;;;;5053748;28;20262;-64
2022/09/10 15:53:03;;;;;;;0.50;0.50;;;;;;;;;;5066256;28;20211;-64
2022/09/10 15:55:50;;;;;;;0.60;0.60;;;;;;;;;;5056384;28;20198;-63
2022/09/10 15:58:37;;;;;;;0.60;0.60;;;;;;;;;;5064201;28;20663;-63
2022/09/10 16:01:26;;;;;;;0.67;0.67;;;;;;;;;;5059405;28;20208;-64
2022/09/10 16:04:14;;;;;;;0.50;0.50;;;;;;;;;;5057730;28;20316;-63
2022/09/10 16:07:02;;;;;;;0.70;0.70;;;;;;;;;;5061346;28;20223;-63
2022/09/10 16:09:49;;;;;;;0.50;0.50;;;;;;;;;;5058341;28;20216;-63
2022/09/10 16:12:36;;;;;;;0.73;0.73;;;;;;;;;;5061882;28;20290;-63
2022/09/10 16:15:23;;;;;;;0.70;0.70;;;;;;;;;;5060682;28;20719;-63
2022/09/10 16:18:11;;;;;;;0.77;0.70;;;;;;;;;;5059094;28;20266;-64
2022/09/10 16:21:05;;;;;;;0.47;0.47;;;;;;;;;;5056943;28;20206;-64
2022/09/10 16:23:55;;;;;;;0.60;0.60;;;;;;;;;;5059648;28;20671;-64
2022/09/10 16:26:44;;;;;;;0.60;0.60;;;;;;;;;;5054613;28;20302;-64
2022/09/10 16:29:32;;;;;;;0.70;0.70;;;;;;;;;;5058033;28;20330;-64
2022/09/10 16:32:19;;;;;;;0.60;0.60;;;;;;;;;;5066778;28;20200;-64
2022/09/10 16:35:07;;;;;;;0.70;0.70;;;;;;;;;;5059930;28;20282;-63
2022/09/10 16:37:55;;;;;;;0.60;0.60;;;;;;;;;;5054843;28;20241;-64
2022/09/10 16:40:44;;;;;;;0.50;0.50;;;;;;;;;;5058479;28;20230;-64
2022/09/10 16:43:32;;;;;;;0.70;0.70;;;;;;;;;;5054642;28;20214;-64
2022/09/10 16:46:19;;;;;;;0.70;0.70;;;;;;;;;;5062305;28;20240;-64
2022/09/10 16:49:11;;;;;;;0.63;0.63;;;;;;;;;;5059522;28;20259;-64
2022/09/10 16:51:58;;;;;;;0.67;0.67;;;;;;;;;;5058513;28;20220;-64
2022/09/10 16:54:46;;;;;;;0.80;0.80;;;;;;;;;;5058494;28;20239;-64
2022/09/10 16:57:34;;;;;;;0.70;0.70;;;;;;;;;;5053405;28;20603;-64
2022/09/10 17:00:21;;;;;;;0.60;0.60;;;;;;;;;;5055213;28;20735;-64
2022/09/10 17:03:08;;;;;;;0.60;0.60;;;;;;;;;;5057189;28;20222;-63
2022/09/10 17:05:56;;;;;;;0.70;0.70;;;;;;;;;;5059735;28;20253;-64
2022/09/10 17:08:44;;;;;;;0.73;0.73;;;;;;;;;;5054082;28;20293;-63